HOURLY OBS INDEX

061

Hunter

CESSNOCK AIRPORT AWS

Site: 061260
Alt: 61.0m
30km SSE of SINGLETON


  Time     Wind        Temp  DP   Baro     Rain since   Rain past  Vis(m), Cloud(base in m), Weather
  local        km/h                         9am  last   hr   10m    
Thu 18:00    C  0/  0  13.2  2.7  1012.6    0.0   0.0   0.0   0.0   ----- 
Thu 18:30   NW  9/ 11  11.9  3.9  1013.4    0.0   0.0   0.0   0.0   ----- 
Thu 19:00    W  6/  9  10.6  4.3  1014.1    0.0   0.0   0.0   0.0   ----- 
Thu 19:30  WSW 13/ 24  14.6  2.8  1014.9    0.0   0.0   0.0   0.0   ----- 
Thu 20:00  WSW 15/ 24  14.8  1.0  1015.0    0.0   0.0   0.0   0.0   ----- 
Thu 20:30  WSW 17/ 32  14.4  0.6  1015.1    0.0   0.0   0.0   0.0   ----- 
Thu 21:00    W  9/ 17  13.4  0.8  1015.7    0.0   0.0   0.0   0.0   ----- 
Thu 21:30  WSW  9/ 13  12.7  0.8  1016.0    0.0   0.0   0.0   0.0   ----- 
Thu 22:00    W  2/ 13  11.4  0.8  1016.4    0.0   0.0   0.0   0.0   ----- 
Thu 22:30   NW  9/ 11   8.8  1.9  1016.7    0.0   0.0   0.0   0.0   ----- 
Thu 23:00    W  9/ 13  10.6  2.2  1016.7    0.0   0.0   0.0   0.0   ----- 

COORANBONG (LAKE MACQUARIE AWS)

Site: 061412
Alt: 6.0m
35km WSW of NEWCASTLE


  Time     Wind        Temp  DP   Baro     Rain since   Rain past  Vis(m), Cloud(base in m), Weather
  local        km/h                         9am  last   hr   10m    
Thu 18:00    W  2/  7  13.3  5.9  1013.0    0.0   0.0   0.0   0.0   ----- 
Thu 18:30    C  0/  0  12.4  6.7  1013.6    0.0   0.0   0.0   0.0   ----- 
Thu 19:00    C  0/  0  10.2  6.7  1014.4    0.0   0.0   0.0   0.0   ----- 
Thu 19:30    W  2/  6   9.6  6.7  1014.9    0.0   0.0   0.0   0.0   ----- 
Thu 20:00    W  7/ 15  13.9  4.2  1015.3    0.0   0.0   0.0   0.0   ----- 
Thu 20:30    W  6/ 13  13.9  2.8  1015.5    0.0   0.0   0.0   0.0   ----- 
Thu 21:00    W  7/ 17  14.1  2.7  1015.9    0.0   0.0   0.0   0.0   ----- 
Thu 21:30    W  6/ 13  13.6  2.5  1016.2    0.0   0.0   0.0   0.0   ----- 
Thu 22:00    W  2/  4   9.5  3.5  1016.5    0.0   0.0   0.0   0.0   ----- 
Thu 22:30    C  0/  4   8.3  4.5  1016.6    0.0   0.0   0.0   0.0   ----- 
Thu 23:00    C  0/  0   8.0  4.8  1016.4    0.0   0.0   0.0   0.0   ----- 

GOSFORD AWS

Site: 061425
Alt: 7.0m
km of


  Time     Wind        Temp  DP   Baro     Rain since   Rain past  Vis(m), Cloud(base in m), Weather
  local        km/h                         9am  last   hr   10m    
Thu 18:00   SW 11/ 19  16.9  5.5  ------    0.0   0.0   0.0   0.0   ----- 
Thu 18:30    W  7/ 11  15.5  5.7  ------    0.0   0.0   0.0   0.0   ----- 
Thu 19:00    W 11/ 20  15.6  3.7  ------    0.0   0.0   0.0   0.0   ----- 
Thu 19:30    W 11/ 20  15.0  3.8  ------    0.0   0.0   0.0   0.0   ----- 
Thu 20:00    W  9/ 15  13.9  3.7  ------    0.0   0.0   0.0   0.0   ----- 
Thu 20:30    W 11/ 19  14.4  3.2  ------    0.0   0.0   0.0   0.0   ----- 
Thu 21:00   NW  6/  7  13.2  3.6  ------    0.0   0.0   0.0   0.0   ----- 
Thu 21:30   NW  2/  4  11.7  4.0  ------    0.0   0.0   0.0   0.0   ----- 
Thu 22:00  WNW  2/  6  11.0  4.0  ------    0.0   0.0   0.0   0.0   ----- 
Thu 22:30   NW  6/ 11  11.6  3.4  ------    0.0   0.0   0.0   0.0   ----- 
Thu 23:00   NW  7/ 13  12.9  3.3  ------    0.0   0.0   0.0   0.0   ----- 

MAITLAND AIRPORT AWS

Site: 061428
Alt: 27.5m
37km NW of NEWCASTLE


  Time     Wind        Temp  DP   Baro     Rain since   Rain past  Vis(m), Cloud(base in m), Weather
  local        km/h                         9am  last   hr   10m    
Thu 18:00  WNW  9/ 15  14.9  2.1  1012.6    0.0   0.0   0.0   0.0   10000 
Thu 18:30    W 11/ 15  14.6  2.2  1013.3    0.0   0.0   0.0   0.0   10000 
Thu 19:00    W  9/ 13  14.2  2.5  1014.0    0.0   0.0   0.0   0.0   10000 
Thu 19:30    W  9/ 13  13.9  2.8  1014.8    0.0   0.0   0.0   0.0   10000 
Thu 20:00    W 15/ 24  15.4  2.2  1015.1    0.0   0.0   0.0   0.0   10000 
Thu 20:30  WSW 13/ 20  14.2  1.8  1015.3    0.0   0.0   0.0   0.0   10000 
Thu 21:00    W  9/ 13  11.9  1.8  1015.7    0.0   0.0   0.0   0.0   10000 
Thu 21:30    W  7/ 11  11.8  2.0  1016.2    0.0   0.0   0.0   0.0   10000 
Thu 22:00    W 11/ 13  10.0  2.4  1016.4    0.0   0.0   0.0   0.0   10000 
Thu 22:30    W  9/ 15  10.4  2.7  1016.7    0.0   0.0   0.0   0.0   10000 
Thu 23:00  WNW 13/ 17   9.7  3.0  1016.7    0.0   0.0   0.0   0.0   10000 

MANGROVE MOUNTAIN AWS

Site: 061375
Alt: 305.0m
19km NW of GOSFORD


  Time     Wind        Temp  DP   Baro     Rain since   Rain past  Vis(m), Cloud(base in m), Weather
  local        km/h                         9am  last   hr   10m    
Thu 18:00  WSW  7/ 15  12.9 -0.4  ------    0.0   0.0   0.0   0.0   ----- 
Thu 18:30  WSW  7/ 17  12.1 -0.1  ------    0.0   0.0   0.0   0.0   ----- 
Thu 19:00    W  9/ 19  11.7 -0.8  ------    0.0   0.0   0.0   0.0   ----- 
Thu 19:30    W 11/ 20  11.6 -1.2  ------    0.0   0.0   0.0   0.0   ----- 
Thu 20:00    W 11/ 26  11.1 -1.0  ------    0.0   0.0   0.0   0.0   ----- 
Thu 20:30    W  9/ 19  10.3 -0.8  ------    0.0   0.0   0.0   0.0   ----- 
Thu 21:00    W  7/ 11   9.3 -0.6  ------    0.0   0.0   0.0   0.0   ----- 
Thu 21:30    W  6/  7   8.8 -0.2  ------    0.0   0.0   0.0   0.0   ----- 
Thu 22:00    W  4/  7   7.8  0.3  ------    0.0   0.0   0.0   0.0   ----- 
Thu 22:30   NW  2/  4   6.7  1.0  ------    0.0   0.0   0.0   0.0   ----- 
Thu 23:00    W  4/  7   6.3  1.2  ------    0.0   0.0   0.0   0.0   ----- 

MERRIWA (ROSCOMMON)

Site: 061287
Alt: 375.0m
68km W of MUSWELLBROOK


  Time     Wind        Temp  DP   Baro     Rain since   Rain past  Vis(m), Cloud(base in m), Weather
  local        km/h                         9am  last   hr   10m    
Thu 18:00    W 15/ 20  12.6  0.4  1015.3    0.0   0.0   0.0   0.0   ----- 
Thu 18:30  WSW 15/ 24  12.1  0.2  1015.9    0.0   0.0   0.0   0.0   ----- 
Thu 19:00  WSW 15/ 20  11.7  0.5  1016.4    0.0   0.0   0.0   0.0   ----- 
Thu 19:30  WSW 13/ 17  10.7  0.2  1016.8    0.0   0.0   0.0   0.0   ----- 
Thu 20:00    W 11/ 15   8.7  0.2  1017.0    0.0   0.0   0.0   0.0   ----- 
Thu 20:30    W  7/ 11   8.0 -0.2  1017.5    0.0   0.0   0.0   0.0   ----- 
Thu 21:00  WNW 15/ 19   6.5  1.0  1017.6    0.0   0.0   0.0   0.0   ----- 
Thu 21:30   NW  9/ 13   6.5  0.6  1018.1    0.0   0.0   0.0   0.0   ----- 
Thu 22:00  WNW 15/ 17   6.5  1.2  1018.4    0.0   0.0   0.0   0.0   ----- 
Thu 22:30   NW 11/ 13   5.5  0.7  1018.3    0.0   0.0   0.0   0.0   ----- 
Thu 23:00   NW 15/ 19   6.5  1.6  1018.3    0.0   0.0   0.0   0.0   ----- 

MURRURUNDI GAP AWS

Site: 061392
Alt: 729.4m
59km N of MUSWELLBROOK


  Time     Wind        Temp  DP   Baro     Rain since   Rain past  Vis(m), Cloud(base in m), Weather
  local        km/h                         9am  last   hr   10m    
Thu 18:00  WNW 19/ 24  10.6 -0.8  1015.0    0.0   0.0   0.0   0.0   10000 
Thu 18:30    S  7/ 13  10.0 -1.1  1015.9    0.0   0.0   0.0   0.0   10000 
Thu 19:00   SW  9/ 15  10.3 -1.1  1016.4    0.0   0.0   0.0   0.0   10000 
Thu 19:30    W  4/  7   9.9 -1.5  1016.7    0.0   0.0   0.0   0.0   10000 
Thu 20:00    W 11/ 17   9.3 -0.8  1016.9    0.0   0.0   0.0   0.0   10000 
Thu 20:30    W 15/ 26   9.0 -0.6  1017.4    0.0   0.0   0.0   0.0   10000 
Thu 21:00  WSW 11/ 17   8.3 -0.7  1017.6    0.0   0.0   0.0   0.0   10000 
Thu 21:30   SW  7/ 13   8.7 -0.9  1018.1    0.0   0.0   0.0   0.0   10000 
Thu 22:00  WNW  4/ 13   8.3 -0.7  1018.2    0.0   0.0   0.0   0.0   10000 
Thu 22:30    W  7/ 20   8.1 -0.9  1018.2    0.0   0.0   0.0   0.0   10000 
Thu 23:00  WSW  9/ 13   7.7 -0.8  1018.3    0.0   0.0   0.0   0.0   10000 

NEWCASTLE NOBBYS SIGNAL STATION AWS

Site: 061055
Alt: 33.0m
2km NE of NEWCASTLE


  Time     Wind        Temp  DP   Baro     Rain since   Rain past  Vis(m), Cloud(base in m), Weather
  local        km/h                         9am  last   hr   10m    
Thu 18:00    W 11/ 15  17.9  4.8  ------    0.0   0.0   0.0   0.0   ----- 
Thu 18:30  WNW 11/ 15  17.3  5.3  ------    0.0   0.0   0.0   0.0   ----- 
Thu 19:00    W  9/ 15  17.0  5.9  ------    0.0   0.0   0.0   0.0   ----- 
Thu 19:30  WNW 15/ 22  16.4  6.0  ------    0.0   0.0   0.0   0.0   ----- 
Thu 20:00  WSW 13/ 20  16.6  4.9  ------    0.0   0.0   0.0   0.0   ----- 
Thu 20:30  WSW 13/ 19  16.0  5.3  ------    0.0   0.0   0.0   0.0   ----- 
Thu 21:00  WSW 13/ 22  15.6  4.6  ------    0.0   0.0   0.0   0.0   ----- 
Thu 21:30  WSW 11/ 20  15.1  4.5  ------    0.0   0.0   0.0   0.0   ----- 
Thu 22:00    W 13/ 17  14.3  4.6  ------    0.0   0.0   0.0   0.0   ----- 
Thu 22:30    W 17/ 20  13.9  4.2  ------    0.0   0.0   0.0   0.0   ----- 
Thu 23:00    W 15/ 20  13.8  4.4  ------    0.0   0.0   0.0   0.0   ----- 

NORAH HEAD AWS

Site: 061366
Alt: 18.8m
27km NE of GOSFORD


  Time     Wind        Temp  DP   Baro     Rain since   Rain past  Vis(m), Cloud(base in m), Weather
  local        km/h                         9am  last   hr   10m    
Thu 18:00  WSW  9/ 17  17.1  5.4  1012.6    0.0   0.0   0.0   0.0   ----- 
Thu 18:30  WSW 13/ 20  16.3  5.6  1013.3    0.0   0.0   0.0   0.0   ----- 
Thu 19:00   SW 15/ 24  16.0  4.7  1014.1    0.0   0.0   0.0   0.0   ----- 
Thu 19:30  WSW 11/ 19  15.4  3.5  1014.6    0.0   0.0   0.0   0.0   ----- 
Thu 20:00  WSW 11/ 17  14.6  4.3  1015.1    0.0   0.0   0.0   0.0   ----- 
Thu 20:30  WSW 11/ 17  14.2  3.4  1015.3    0.0   0.0   0.0   0.0   ----- 
Thu 21:00    W  9/ 19  13.9  3.1  1015.7    0.0   0.0   0.0   0.0   ----- 
Thu 21:30    W  7/ 13  13.4  3.5  1015.9    0.0   0.0   0.0   0.0   ----- 
Thu 22:00    W  9/ 13  13.3  3.4  1016.0    0.0   0.0   0.0   0.0   ----- 
Thu 22:30  WNW  7/ 11  12.6  3.6  1016.1    0.0   0.0   0.0   0.0   ----- 
Thu 23:00  WNW  7/ 13  12.1  4.1  1015.9    0.0   0.0   0.0   0.0   ----- 

PATERSON (TOCAL AWS)

Site: 061250
Alt: 30.0m
38km NNW of NEWCASTLE


  Time     Wind        Temp  DP   Baro     Rain since   Rain past  Vis(m), Cloud(base in m), Weather
  local        km/h                         9am  last   hr   10m    
Thu 18:00   NW  7/ 11  15.1  3.3  ------    0.0   0.0   0.0   0.0   ----- 
Thu 18:30  WNW 11/ 17  15.5  2.3  ------    0.0   0.0   0.0   0.0   ----- 
Thu 19:00    W 11/ 17  15.3  2.5  ------    0.0   0.0   0.0   0.0   ----- 
Thu 19:30    W 13/ 26  15.3  2.5  ------    0.0   0.0   0.0   0.0   ----- 
Thu 20:00  WSW 15/ 22  15.3  2.5  ------    0.0   0.0   0.0   0.0   ----- 
Thu 20:30  WSW 15/ 24  14.7  2.3  ------    0.0   0.0   0.0   0.0   ----- 
Thu 21:00    W  7/ 11  13.9  2.2  ------    0.0   0.0   0.0   0.0   ----- 
Thu 21:30    C  0/  6  12.3  3.0  ------    0.0   0.0   0.0   0.0   ----- 
Thu 22:00    C  0/  0  11.0  3.1  ------    0.0   0.0   0.0   0.0   ----- 
Thu 22:30  WSW  6/  7  11.3  2.6  ------    0.0   0.0   0.0   0.0   ----- 
Thu 23:00    W  6/  9  10.8  2.9  ------    0.0   0.0   0.0   0.0   ----- 

SCONE AIRPORT AWS

Site: 061363
Alt: 221.4m
26km NNW of MUSWELLBROOK


  Time     Wind        Temp  DP   Baro     Rain since   Rain past  Vis(m), Cloud(base in m), Weather
  local        km/h                         9am  last   hr   10m    
Thu 18:00    W 13/ 19  14.2 -0.6  1014.5    0.0   0.0   0.0   0.0   10000 
Thu 18:30  WNW 11/ 17  13.8 -0.6  1014.9    0.0   0.0   0.0   0.0   10000 
Thu 19:00    W 20/ 28  13.6 -0.4  1015.5    0.0   0.0   0.0   0.0   10000 
Thu 19:30    W 19/ 24  13.0 -0.3  1015.7    0.0   0.0   0.0   0.0   10000 
Thu 20:00    W 15/ 22  11.5  0.3  1016.2    0.0   0.0   0.0   0.0   10000 
Thu 20:30    W 15/ 20  11.5  0.0  1016.7    0.0   0.0   0.0   0.0   10000 
Thu 21:00    W 11/ 15  10.5  0.3  1017.0    0.0   0.0   0.0   0.0   10000 
Thu 21:30    W  9/ 13   9.7  0.3  1017.5    0.0   0.0   0.0   0.0   10000 
Thu 22:00  WNW 13/ 15   9.0  0.7  1017.7    0.0   0.0   0.0   0.0   10000 
Thu 22:30  WSW  7/  9   8.2  0.4  1017.7    0.0   0.0   0.0   0.0   10000 
Thu 23:00   NW  9/ 11  10.8  0.5  1017.9    0.0   0.0   0.0   0.0   10000 

SINGLETON DEFENCE AWS

Site: 061430
Alt: 125.0m
km of


  Time     Wind        Temp  DP   Baro     Rain since   Rain past  Vis(m), Cloud(base in m), Weather
  local        km/h                         9am  last   hr   10m    
Thu 18:00    W 11/ 17  15.5  1.6  ------    0.0   0.0   0.0   0.0   ----- 
Thu 18:30  WNW 11/ 13  14.3  2.2  ------    0.0   0.0   0.0   0.0   ----- 
Thu 19:00  WNW  9/ 13  14.0  2.3  ------    0.0   0.0   0.0   0.0   ----- 
Thu 19:30   SW 17/ 28  14.7  1.3  ------    0.0   0.0   0.0   0.0   ----- 
Thu 20:00   SW 19/ 32  14.4  1.0  ------    0.0   0.0   0.0   0.0   ----- 
Thu 20:30   SW 19/ 30  14.0  0.6  ------    0.0   0.0   0.0   0.0   ----- 
Thu 21:00  WSW 19/ 28  13.3  1.0  ------    0.0   0.0   0.0   0.0   ----- 
Thu 21:30   SW 17/ 22  12.8  0.9  ------    0.0   0.0   0.0   0.0   ----- 
Thu 22:00    W 13/ 15  11.9  1.0  ------    0.0   0.0   0.0   0.0   ----- 
Thu 22:30    W  9/ 13  11.2  0.9  ------    0.0   0.0   0.0   0.0   ----- 
Thu 23:00    W  9/  9  10.8  1.4  ------    0.0   0.0   0.0   0.0   ----- 

WILLIAMTOWN RAAF

Site: 061078
Alt: 7.5m
16km NNE of NEWCASTLE


  Time     Wind        Temp  DP   Baro     Rain since   Rain past  Vis(m), Cloud(base in m), Weather
  local        km/h                         9am  last   hr   10m    
Thu 18:00   SW  9/  9  15.6  3.1  1012.6    0.0   0.0   0.0   0.0   10000 
Thu 18:30   NW  9/ 13  14.0  3.8  1013.0    0.0   0.0   0.0   0.0   10000 
Thu 19:00  WNW 17/ 20  13.9  4.5  1013.6    0.0   0.0   0.0   0.0   10000 
Thu 19:30  WNW 17/ 22  14.5  3.0  1014.3    0.0   0.0   0.0   0.0   10000 
Thu 20:00    W 13/ 17  13.6  3.4  1014.8    0.0   0.0   0.0   0.0   10000 
Thu 20:30    W 13/ 15  12.4  3.6  1015.0    0.0   0.0   0.0   0.0   10000 
Thu 21:00    W 13/ 17  12.2  3.7  1015.5    0.0   0.0   0.0   0.0   10000 
Thu 21:30    W 15/ 19  11.5  4.0  1016.0    0.0   0.0   0.0   0.0   10000 
Thu 22:00  WNW 11/ 13  11.0  4.0  1016.3    0.0   0.0   0.0   0.0   10000 
Thu 22:30    W 15/ 17  10.6  3.9  1016.2    0.0   0.0   0.0   0.0   10000 
Thu 23:00   NW 13/ 15   9.7  4.3  1016.4    0.0   0.0   0.0   0.0   10000